createdAt,value
2023-05-18T00:00:01.136Z,60.40
2023-05-18T00:02:05.839Z,60.40
2023-05-18T00:04:10.160Z,61.00
2023-05-18T00:06:13.973Z,60.80
2023-05-18T00:08:16.745Z,60.80
2023-05-18T00:10:19.658Z,61.20
2023-05-18T00:12:22.444Z,60.90
2023-05-18T00:14:26.581Z,61.10
2023-05-18T00:16:29.332Z,61.00
2023-05-18T00:18:34.213Z,61.10
2023-05-18T00:20:37.613Z,61.40
2023-05-18T00:22:42.747Z,62.30
2023-05-18T00:24:45.997Z,62.50
2023-05-18T00:26:49.973Z,62.50
2023-05-18T00:28:52.733Z,62.40
2023-05-18T00:30:57.139Z,62.30
2023-05-18T00:33:00.016Z,62.20
2023-05-18T00:35:02.888Z,62.10
2023-05-18T00:37:05.774Z,62.30
2023-05-18T00:39:10.040Z,62.10
2023-05-18T00:41:12.806Z,62.20
2023-05-18T00:43:15.608Z,62.10
2023-05-18T00:45:20.414Z,61.90
2023-05-18T00:47:24.587Z,62.00
2023-05-18T00:49:27.787Z,62.40
2023-05-18T00:51:32.943Z,63.50
2023-05-18T00:53:36.868Z,64.00
2023-05-18T00:55:39.849Z,64.80
2023-05-18T00:57:45.531Z,64.80
2023-05-18T00:59:49.170Z,64.30
2023-05-18T01:01:52.364Z,64.10
2023-05-18T01:03:57.482Z,64.10
2023-05-18T01:06:00.255Z,64.10
2023-05-18T01:08:03.272Z,64.20
2023-05-18T01:10:07.371Z,64.30
2023-05-18T01:12:19.377Z,64.00
2023-05-18T01:14:30.735Z,64.00
2023-05-18T01:16:41.707Z,64.00
2023-05-18T01:18:55.027Z,63.90
2023-05-18T01:21:01.384Z,63.80
2023-05-18T01:23:29.659Z,63.50
2023-05-18T01:25:40.968Z,63.70
2023-05-18T01:27:46.763Z,63.40
2023-05-18T01:29:50.751Z,63.50
2023-05-18T01:31:53.586Z,63.50
2023-05-18T01:33:56.352Z,63.60
2023-05-18T01:35:59.236Z,63.60
2023-05-18T01:38:02.000Z,63.60
2023-05-18T01:40:06.617Z,64.10
2023-05-18T01:42:14.304Z,64.50
2023-05-18T01:44:23.050Z,64.50
2023-05-18T01:46:42.168Z,64.50
2023-05-18T01:48:51.707Z,64.40
2023-05-18T01:50:58.419Z,64.50
2023-05-18T01:53:07.334Z,64.50
2023-05-18T01:55:12.594Z,64.50
2023-05-18T01:57:17.392Z,65.00
2023-05-18T01:59:22.222Z,65.40
2023-05-18T02:01:25.641Z,65.40
2023-05-18T02:03:28.639Z,65.30
2023-05-18T02:05:31.851Z,65.20
2023-05-18T02:07:34.861Z,64.90
2023-05-18T02:09:37.813Z,64.70
2023-05-18T02:11:40.672Z,64.50
2023-05-18T02:13:43.477Z,65.00
2023-05-18T02:15:47.736Z,64.20
2023-05-18T02:17:50.589Z,64.00
2023-05-18T02:19:53.509Z,64.00
2023-05-18T02:21:56.717Z,64.00
2023-05-18T02:23:59.456Z,64.10
2023-05-18T02:26:02.308Z,64.10
2023-05-18T02:28:05.724Z,64.00
2023-05-18T02:30:09.572Z,64.10
2023-05-18T02:32:14.274Z,64.10
2023-05-18T02:34:17.307Z,64.10
2023-05-18T02:36:22.534Z,64.00
2023-05-18T02:38:25.695Z,64.00
2023-05-18T02:40:28.554Z,64.50
2023-05-18T02:42:31.977Z,64.50
2023-05-18T02:44:34.760Z,64.60
2023-05-18T02:46:37.530Z,64.60
2023-05-18T02:48:45.793Z,64.50
2023-05-18T02:50:49.715Z,64.50
2023-05-18T02:52:52.459Z,65.50
2023-05-18T02:54:56.159Z,64.80
2023-05-18T02:56:58.936Z,64.90
2023-05-18T02:59:01.835Z,65.00
2023-05-18T03:01:07.814Z,65.10
2023-05-18T03:03:15.743Z,65.80
2023-05-18T03:05:23.712Z,65.80
2023-05-18T03:07:27.730Z,66.30
2023-05-18T03:09:30.581Z,66.30
2023-05-18T03:11:33.393Z,66.60
2023-05-18T03:13:36.233Z,66.60
2023-05-18T03:15:39.525Z,66.40
2023-05-18T03:17:42.547Z,66.20
2023-05-18T03:19:45.428Z,66.20
2023-05-18T03:21:49.736Z,66.00
2023-05-18T03:23:52.534Z,66.00
2023-05-18T03:25:55.510Z,66.00
2023-05-18T03:27:58.315Z,66.00
2023-05-18T03:30:01.356Z,66.10
2023-05-18T03:32:04.207Z,66.20
2023-05-18T03:34:07.178Z,66.20
2023-05-18T03:36:10.689Z,66.20
2023-05-18T03:38:14.830Z,66.50
2023-05-18T03:40:18.263Z,66.70
2023-05-18T03:42:21.118Z,66.60
2023-05-18T03:44:23.954Z,66.50
2023-05-18T03:46:27.235Z,66.20
2023-05-18T03:48:30.878Z,66.30
2023-05-18T03:50:33.857Z,66.60
2023-05-18T03:52:37.561Z,66.70
2023-05-18T03:54:42.774Z,66.80
2023-05-18T03:56:45.551Z,66.90
2023-05-18T03:58:48.357Z,66.80
2023-05-18T04:00:52.723Z,66.90
2023-05-18T04:02:56.731Z,66.90
2023-05-18T04:04:59.579Z,66.80
2023-05-18T04:07:06.065Z,67.10
2023-05-18T04:09:08.886Z,67.10
2023-05-18T04:11:13.046Z,66.90
2023-05-18T04:13:15.814Z,66.80
2023-05-18T04:15:18.598Z,66.70
2023-05-18T04:17:22.995Z,66.70
2023-05-18T04:19:25.921Z,66.70
2023-05-18T04:21:33.895Z,66.50
2023-05-18T04:23:38.962Z,66.40
2023-05-18T04:25:41.757Z,66.40
2023-05-18T04:27:46.961Z,66.30
2023-05-18T04:29:51.894Z,66.20
2023-05-18T04:32:00.975Z,66.10
2023-05-18T04:34:04.148Z,66.10
2023-05-18T04:36:07.403Z,66.20
2023-05-18T04:38:11.612Z,66.00
2023-05-18T04:40:16.922Z,66.00
2023-05-18T04:42:19.803Z,65.90
2023-05-18T04:44:24.147Z,66.00
2023-05-18T04:46:27.190Z,65.90
2023-05-18T04:48:32.179Z,65.90
2023-05-18T04:50:35.857Z,65.80
2023-05-18T04:52:38.685Z,65.90
2023-05-18T04:54:41.493Z,65.90
2023-05-18T04:56:44.287Z,66.00
2023-05-18T04:58:48.110Z,66.70
2023-05-18T05:00:52.637Z,66.80
2023-05-18T05:02:56.261Z,66.10
2023-05-18T05:04:59.198Z,66.10
2023-05-18T05:07:01.992Z,66.10
2023-05-18T05:09:05.478Z,66.00
2023-05-18T05:11:08.352Z,66.00
2023-05-18T05:13:11.187Z,66.00
2023-05-18T05:15:14.026Z,65.90
2023-05-18T05:17:18.148Z,66.00
2023-05-18T05:19:20.999Z,65.90
2023-05-18T05:21:23.957Z,65.00
2023-05-18T05:23:26.836Z,64.80
2023-05-18T05:25:29.821Z,65.00
2023-05-18T05:27:32.825Z,64.90
2023-05-18T05:29:35.697Z,65.10
2023-05-18T05:31:38.479Z,65.00
2023-05-18T05:33:42.810Z,64.80
2023-05-18T05:35:45.863Z,64.70
2023-05-18T05:37:48.695Z,64.80
2023-05-18T05:39:51.735Z,64.90
2023-05-18T05:41:54.484Z,64.80
2023-05-18T05:43:57.344Z,65.10
2023-05-18T05:46:00.247Z,65.30
2023-05-18T05:48:03.032Z,65.20
2023-05-18T05:50:08.237Z,64.80
2023-05-18T05:52:11.051Z,64.80
2023-05-18T05:54:13.844Z,64.50
2023-05-18T05:56:16.653Z,64.40
2023-05-18T05:58:19.471Z,64.40
2023-05-18T06:00:23.772Z,64.10
2023-05-18T06:02:26.777Z,64.10
2023-05-18T06:04:29.881Z,63.70
2023-05-18T06:06:34.113Z,63.80
2023-05-18T06:08:37.023Z,63.90
2023-05-18T06:10:41.284Z,63.90
2023-05-18T06:12:44.137Z,63.70
2023-05-18T06:14:47.028Z,64.20
2023-05-18T06:16:49.824Z,63.90
2023-05-18T06:18:52.863Z,63.70
2023-05-18T06:20:55.727Z,64.00
2023-05-18T06:23:05.625Z,63.50
2023-05-18T06:25:11.888Z,63.90
2023-05-18T06:27:14.808Z,63.20
2023-05-18T06:29:17.676Z,64.10
2023-05-18T06:31:21.143Z,63.80
2023-05-18T06:33:24.770Z,63.30
2023-05-18T06:35:27.890Z,62.80
2023-05-18T06:37:31.239Z,63.00
2023-05-18T06:39:35.629Z,63.50
2023-05-18T06:41:38.517Z,62.90
2023-05-18T06:43:41.315Z,62.70
2023-05-18T06:45:44.390Z,62.60
2023-05-18T06:47:48.582Z,62.90
2023-05-18T06:49:51.537Z,62.50
2023-05-18T06:51:54.470Z,62.80
2023-05-18T06:53:57.280Z,63.20
2023-05-18T06:56:01.486Z,62.60
2023-05-18T06:58:04.410Z,63.10
2023-05-18T07:00:12.463Z,63.90
2023-05-18T07:02:15.281Z,63.70
2023-05-18T07:04:19.288Z,62.70
2023-05-18T07:06:22.312Z,62.10
2023-05-18T07:08:25.526Z,61.70
2023-05-18T07:10:28.967Z,61.60
2023-05-18T07:12:33.114Z,61.50
2023-05-18T07:14:36.212Z,60.40
2023-05-18T07:16:39.578Z,60.60
2023-05-18T07:18:42.651Z,60.90
2023-05-18T07:20:45.515Z,60.70
2023-05-18T07:22:48.443Z,60.80
2023-05-18T07:24:51.280Z,60.90
2023-05-18T07:26:54.299Z,60.50
2023-05-18T07:28:58.399Z,60.60
2023-05-18T07:31:01.392Z,60.10
2023-05-18T07:33:04.491Z,59.80
2023-05-18T07:35:07.776Z,59.60
2023-05-18T07:37:10.640Z,57.90
2023-05-18T07:39:19.448Z,59.00
2023-05-18T07:41:23.506Z,58.80
2023-05-18T07:43:26.592Z,58.50
2023-05-18T07:45:31.797Z,59.30
2023-05-18T07:47:35.368Z,59.00
2023-05-18T07:49:39.068Z,57.90
2023-05-18T07:51:42.584Z,58.40
2023-05-18T07:53:46.124Z,58.00
2023-05-18T07:55:49.992Z,58.20
2023-05-18T07:57:53.008Z,58.00
2023-05-18T07:59:55.822Z,56.90
2023-05-18T08:02:00.095Z,57.40
2023-05-18T08:04:03.079Z,56.60
2023-05-18T08:06:06.333Z,56.30
2023-05-18T08:08:11.897Z,56.70
2023-05-18T08:10:14.761Z,56.50
2023-05-18T08:12:17.557Z,54.80
2023-05-18T08:14:20.433Z,56.10
2023-05-18T08:16:23.490Z,56.00
2023-05-18T08:18:27.927Z,55.90
2023-05-18T08:20:31.230Z,55.30
2023-05-18T08:22:34.208Z,55.60
2023-05-18T08:24:37.092Z,55.70
2023-05-18T08:26:39.938Z,55.30
2023-05-18T08:28:43.663Z,55.00
2023-05-18T08:30:46.458Z,54.80
2023-05-18T08:32:49.364Z,55.00
2023-05-18T08:34:54.287Z,55.00
2023-05-18T08:36:57.126Z,55.20
2023-05-18T08:39:00.149Z,54.90
2023-05-18T08:41:12.611Z,54.60
2023-05-18T08:43:23.122Z,53.70
2023-05-18T08:45:33.643Z,54.00
2023-05-18T08:47:38.783Z,51.60
2023-05-18T08:49:43.257Z,52.00
2023-05-18T08:51:49.633Z,53.30
2023-05-18T08:53:54.730Z,53.60
2023-05-18T08:55:58.762Z,53.00
2023-05-18T08:58:03.203Z,53.80
2023-05-18T09:00:07.913Z,53.80
2023-05-18T09:02:11.386Z,53.60
2023-05-18T09:04:15.164Z,52.90
2023-05-18T09:06:19.309Z,51.80
2023-05-18T09:08:24.384Z,52.70
2023-05-18T09:10:27.418Z,52.90
2023-05-18T09:12:31.316Z,50.70
2023-05-18T09:14:34.224Z,51.30
2023-05-18T09:16:37.025Z,51.90
2023-05-18T09:18:39.964Z,52.00
2023-05-18T09:20:42.774Z,51.20
2023-05-18T09:22:45.845Z,50.90
2023-05-18T09:24:50.310Z,49.80
2023-05-18T09:26:53.213Z,50.30
2023-05-18T09:28:56.145Z,50.10
2023-05-18T09:30:58.927Z,50.30
2023-05-18T09:33:01.794Z,49.90
2023-05-18T09:35:08.572Z,49.60
2023-05-18T09:37:11.455Z,49.60
2023-05-18T09:39:14.507Z,50.00
2023-05-18T09:41:19.969Z,49.10
2023-05-18T09:43:22.985Z,49.20
2023-05-18T09:45:26.829Z,49.00
2023-05-18T09:47:29.659Z,48.90
2023-05-18T09:49:32.510Z,49.50
2023-05-18T09:51:39.100Z,49.60
2023-05-18T09:53:42.106Z,48.30
2023-05-18T09:55:49.650Z,49.30
2023-05-18T09:57:53.736Z,48.70
2023-05-18T09:59:57.452Z,49.80
2023-05-18T10:02:02.044Z,49.60
2023-05-18T10:04:06.348Z,49.20
2023-05-18T10:06:13.238Z,48.50
2023-05-18T10:08:16.662Z,47.30
2023-05-18T10:10:20.831Z,48.20
2023-05-18T10:12:24.738Z,48.20
2023-05-18T10:14:33.581Z,49.00
2023-05-18T10:16:36.672Z,48.20
2023-05-18T10:18:40.668Z,48.80
2023-05-18T10:20:44.902Z,47.80
2023-05-18T10:22:49.351Z,47.20
2023-05-18T10:24:53.189Z,47.00
2023-05-18T10:27:02.424Z,47.20
2023-05-18T10:29:05.785Z,46.60
2023-05-18T10:31:10.733Z,44.70
2023-05-18T10:33:27.778Z,45.90
2023-05-18T10:35:31.957Z,46.70
2023-05-18T10:37:36.558Z,45.40
2023-05-18T10:39:39.827Z,45.60
2023-05-18T10:41:44.864Z,44.30
2023-05-18T10:43:48.853Z,44.90
2023-05-18T10:45:54.875Z,44.20
2023-05-18T10:48:01.628Z,44.10
2023-05-18T10:50:06.249Z,44.80
2023-05-18T10:52:12.655Z,44.60
2023-05-18T10:54:15.826Z,45.20
2023-05-18T10:56:18.665Z,45.30
2023-05-18T10:58:23.653Z,44.60
2023-05-18T11:00:26.664Z,45.40
2023-05-18T11:02:32.354Z,44.80
2023-05-18T11:04:36.606Z,44.90
2023-05-18T11:06:41.300Z,44.80
2023-05-18T11:08:45.514Z,44.90
2023-05-18T11:10:48.362Z,44.50
2023-05-18T11:12:53.569Z,43.60
2023-05-18T11:14:57.767Z,44.50
2023-05-18T11:17:18.023Z,44.10
2023-05-18T11:19:27.750Z,44.50
2023-05-18T11:21:49.152Z,43.60
2023-05-18T11:24:21.301Z,42.90
2023-05-18T11:26:29.611Z,43.40
2023-05-18T11:28:33.899Z,42.80
2023-05-18T11:30:51.046Z,42.30
2023-05-18T11:32:54.113Z,43.60
2023-05-18T11:34:57.345Z,43.10
2023-05-18T11:37:01.602Z,43.10
2023-05-18T11:39:06.806Z,42.90
2023-05-18T11:41:13.630Z,43.40
2023-05-18T11:43:21.853Z,43.50
2023-05-18T11:45:25.895Z,42.80
2023-05-18T11:47:32.037Z,42.70
2023-05-18T11:49:38.980Z,43.00
2023-05-18T11:51:58.676Z,40.30
2023-05-18T11:54:04.156Z,43.30
2023-05-18T11:56:07.328Z,43.00
2023-05-18T11:58:10.725Z,43.00
2023-05-18T12:00:15.135Z,43.40
2023-05-18T12:02:22.058Z,43.00
2023-05-18T12:04:25.837Z,42.90
2023-05-18T12:06:29.322Z,41.80
2023-05-18T12:08:32.412Z,41.80
2023-05-18T12:10:37.147Z,42.60
2023-05-18T12:12:40.490Z,42.20
2023-05-18T12:14:44.585Z,42.90
2023-05-18T12:16:51.030Z,42.70
2023-05-18T12:18:54.002Z,42.50
2023-05-18T12:20:56.874Z,42.30
2023-05-18T12:22:59.868Z,42.40
2023-05-18T12:25:02.691Z,41.10
2023-05-18T12:27:07.934Z,41.10
2023-05-18T12:29:12.479Z,41.10
2023-05-18T12:31:15.632Z,42.10
2023-05-18T12:33:18.485Z,41.60
2023-05-18T12:35:23.350Z,40.60
2023-05-18T12:37:34.061Z,41.60
2023-05-18T12:39:52.476Z,41.60
2023-05-18T12:41:55.689Z,41.00
2023-05-18T12:43:59.859Z,41.70
2023-05-18T12:46:03.163Z,41.00
2023-05-18T12:48:06.373Z,41.50
2023-05-18T12:50:09.955Z,40.60
2023-05-18T12:52:14.308Z,41.10
2023-05-18T12:54:17.116Z,41.50
2023-05-18T12:56:20.927Z,40.80
2023-05-18T12:58:23.732Z,40.30
2023-05-18T13:00:27.952Z,40.60
2023-05-18T13:02:33.674Z,40.80
2023-05-18T13:04:37.004Z,41.00
2023-05-18T13:06:40.346Z,40.30
2023-05-18T13:08:43.310Z,40.70
2023-05-18T13:10:49.180Z,39.80
2023-05-18T13:13:01.345Z,39.90
2023-05-18T13:15:13.867Z,40.10
2023-05-18T13:17:23.913Z,39.80
2023-05-18T13:19:27.478Z,39.00
2023-05-18T13:21:30.659Z,39.60
2023-05-18T13:23:33.445Z,39.90
2023-05-18T13:25:36.247Z,40.30
2023-05-18T13:27:39.706Z,40.30
2023-05-18T13:29:42.449Z,39.80
2023-05-18T13:31:45.826Z,40.30
2023-05-18T13:33:50.930Z,40.40
2023-05-18T13:35:53.787Z,40.70
2023-05-18T13:37:56.953Z,40.60
2023-05-18T13:40:00.227Z,40.80
2023-05-18T13:42:03.347Z,40.00
2023-05-18T13:44:06.437Z,39.90
2023-05-18T13:46:09.562Z,40.50
2023-05-18T13:48:12.575Z,40.70
2023-05-18T13:50:17.504Z,40.10
2023-05-18T13:52:20.341Z,40.10
2023-05-18T13:54:23.259Z,40.00
2023-05-18T13:56:27.626Z,39.70
2023-05-18T13:58:30.406Z,39.80
2023-05-18T14:00:34.201Z,40.60
2023-05-18T14:02:37.913Z,40.10
2023-05-18T14:04:41.045Z,40.40
2023-05-18T14:06:45.333Z,40.60
2023-05-18T14:08:48.059Z,40.70
2023-05-18T14:10:50.890Z,40.20
2023-05-18T14:12:53.676Z,39.60
2023-05-18T14:14:56.538Z,40.90
2023-05-18T14:16:59.424Z,41.40
2023-05-18T14:19:02.256Z,40.90
2023-05-18T14:21:05.319Z,40.90
2023-05-18T14:23:09.891Z,41.00
2023-05-18T14:25:12.735Z,41.20
2023-05-18T14:27:16.262Z,40.30
2023-05-18T14:29:19.053Z,38.00
2023-05-18T14:31:21.919Z,37.30
2023-05-18T14:33:24.841Z,37.10
2023-05-18T14:35:27.748Z,36.90
2023-05-18T14:37:30.576Z,37.10
2023-05-18T14:39:34.682Z,37.60
2023-05-18T14:41:37.474Z,37.80
2023-05-18T14:43:40.307Z,36.80
2023-05-18T14:45:46.306Z,35.00
2023-05-18T14:47:51.363Z,34.70
2023-05-18T14:49:54.085Z,36.80
2023-05-18T14:51:56.872Z,35.90
2023-05-18T14:53:59.692Z,34.30
2023-05-18T14:56:06.162Z,33.90
2023-05-18T14:58:12.401Z,34.50
2023-05-18T15:00:16.278Z,35.50
2023-05-18T15:02:19.118Z,34.50
2023-05-18T15:04:22.198Z,34.20
2023-05-18T15:06:26.239Z,33.80
2023-05-18T15:08:29.053Z,34.80
2023-05-18T15:10:32.164Z,33.50
2023-05-18T15:12:36.457Z,33.10
2023-05-18T15:14:39.190Z,33.00
2023-05-18T15:16:42.299Z,32.10
2023-05-18T15:18:45.407Z,31.50
2023-05-18T15:20:48.188Z,31.90
2023-05-18T15:22:51.744Z,31.50
2023-05-18T15:24:55.213Z,31.60
2023-05-18T15:26:58.138Z,31.70
2023-05-18T15:29:02.240Z,32.50
2023-05-18T15:31:05.173Z,33.40
2023-05-18T15:33:08.000Z,34.10
2023-05-18T15:35:11.047Z,35.00
2023-05-18T15:37:13.796Z,35.40
2023-05-18T15:39:16.558Z,35.40
2023-05-18T15:41:19.937Z,34.90
2023-05-18T15:43:24.015Z,35.40
2023-05-18T15:45:28.359Z,36.40
2023-05-18T15:47:31.283Z,36.30
2023-05-18T15:49:34.057Z,36.50
2023-05-18T15:51:36.927Z,37.10
2023-05-18T15:53:40.176Z,37.60
2023-05-18T15:55:42.948Z,37.60
2023-05-18T15:57:45.981Z,37.90
2023-05-18T15:59:48.850Z,37.50
2023-05-18T16:01:53.035Z,37.80
2023-05-18T16:03:56.255Z,37.60
2023-05-18T16:05:59.103Z,37.40
2023-05-18T16:08:01.960Z,37.10
2023-05-18T16:10:05.149Z,37.30
2023-05-18T16:12:09.251Z,37.30
2023-05-18T16:14:12.046Z,37.30
2023-05-18T16:16:14.869Z,37.10
2023-05-18T16:18:19.034Z,36.80
2023-05-18T16:20:22.006Z,36.70
2023-05-18T16:22:24.828Z,36.40
2023-05-18T16:24:27.593Z,36.20
2023-05-18T16:26:30.388Z,36.50
2023-05-18T16:28:33.332Z,36.50
2023-05-18T16:30:36.173Z,36.90
2023-05-18T16:32:38.968Z,36.80
2023-05-18T16:34:43.096Z,37.40
2023-05-18T16:36:46.145Z,37.30
2023-05-18T16:38:48.972Z,37.70
2023-05-18T16:40:51.769Z,38.00
2023-05-18T16:42:54.735Z,38.40
2023-05-18T16:44:57.481Z,38.80
2023-05-18T16:47:00.245Z,38.80
2023-05-18T16:49:03.044Z,39.00
2023-05-18T16:51:07.518Z,39.40
2023-05-18T16:53:10.278Z,39.50
2023-05-18T16:55:13.127Z,39.50
2023-05-18T16:57:16.096Z,39.90
2023-05-18T16:59:20.332Z,39.30
2023-05-18T17:01:28.480Z,39.10
2023-05-18T17:03:34.409Z,39.30
2023-05-18T17:05:37.862Z,38.80
2023-05-18T17:07:41.961Z,39.30
2023-05-18T17:09:45.086Z,38.50
2023-05-18T17:11:48.264Z,39.00
2023-05-18T17:13:52.052Z,39.30
2023-05-18T17:15:54.987Z,39.70
2023-05-18T17:17:57.831Z,40.00
2023-05-18T17:20:00.692Z,40.20
2023-05-18T17:22:03.545Z,40.00
2023-05-18T17:24:08.349Z,40.20
2023-05-18T17:26:11.366Z,40.20
2023-05-18T17:28:18.920Z,40.20
2023-05-18T17:30:21.762Z,40.10
2023-05-18T17:32:24.753Z,40.50
2023-05-18T17:34:27.677Z,40.60
2023-05-18T17:36:31.054Z,40.60
2023-05-18T17:38:33.802Z,40.50
2023-05-18T17:40:38.128Z,40.20
2023-05-18T17:42:41.033Z,40.30
2023-05-18T17:44:44.950Z,40.20
2023-05-18T17:46:48.936Z,40.30
2023-05-18T17:48:51.804Z,40.00
2023-05-18T17:50:54.596Z,40.00
2023-05-18T17:52:57.451Z,40.00
2023-05-18T17:55:00.342Z,40.00
2023-05-18T17:57:04.711Z,40.20
2023-05-18T17:59:07.711Z,40.60
2023-05-18T18:01:12.177Z,40.50
2023-05-18T18:03:15.188Z,40.40
2023-05-18T18:05:18.105Z,40.40
2023-05-18T18:07:20.949Z,40.30
2023-05-18T18:09:24.148Z,40.30
2023-05-18T18:11:27.588Z,40.80
2023-05-18T18:13:31.749Z,41.10
2023-05-18T18:15:34.692Z,41.20
2023-05-18T18:17:37.530Z,41.10
2023-05-18T18:19:40.376Z,41.30
2023-05-18T18:21:43.155Z,41.50
2023-05-18T18:23:46.069Z,41.60
2023-05-18T18:25:48.834Z,41.90
2023-05-18T18:27:51.663Z,42.10
2023-05-18T18:29:56.371Z,42.40
2023-05-18T18:31:59.124Z,42.30
2023-05-18T18:34:01.958Z,42.50
2023-05-18T18:36:07.288Z,43.00
2023-05-18T18:38:10.921Z,43.20
2023-05-18T18:40:14.428Z,43.50
2023-05-18T18:42:21.093Z,43.70
2023-05-18T18:44:24.469Z,44.10
2023-05-18T18:46:28.622Z,44.10
2023-05-18T18:48:31.505Z,44.30
2023-05-18T18:50:34.324Z,44.50
2023-05-18T18:52:37.160Z,44.60
2023-05-18T18:54:39.939Z,44.80
2023-05-18T18:56:43.951Z,44.80
2023-05-18T18:58:46.703Z,44.90
2023-05-18T19:00:49.467Z,45.60
2023-05-18T19:02:53.614Z,45.20
2023-05-18T19:04:56.555Z,45.20
2023-05-18T19:07:03.853Z,45.60
2023-05-18T19:09:06.990Z,45.70
2023-05-18T19:11:09.818Z,45.80
2023-05-18T19:13:12.606Z,45.80
2023-05-18T19:15:16.236Z,45.90
2023-05-18T19:17:19.238Z,46.10
2023-05-18T19:19:23.491Z,46.10
2023-05-18T19:21:26.416Z,46.40
2023-05-18T19:23:29.179Z,46.50
2023-05-18T19:25:32.346Z,46.80
2023-05-18T19:27:35.377Z,46.80
2023-05-18T19:29:38.323Z,46.80
2023-05-18T19:31:41.264Z,47.10
2023-05-18T19:33:44.058Z,47.10
2023-05-18T19:35:49.488Z,47.30
2023-05-18T19:37:52.778Z,47.20
2023-05-18T19:39:55.634Z,47.50
2023-05-18T19:41:58.497Z,47.50
2023-05-18T19:44:01.465Z,47.70
2023-05-18T19:46:04.321Z,47.80
2023-05-18T19:48:07.420Z,48.00
2023-05-18T19:50:10.423Z,48.00
2023-05-18T19:52:14.547Z,48.10
2023-05-18T19:54:17.341Z,48.00
2023-05-18T19:56:20.226Z,48.10
2023-05-18T19:58:23.047Z,48.20
2023-05-18T20:00:27.504Z,48.30
2023-05-18T20:02:30.705Z,48.30
2023-05-18T20:04:33.797Z,48.40
2023-05-18T20:06:36.770Z,48.30
2023-05-18T20:08:51.339Z,48.50
2023-05-18T20:10:55.470Z,48.50
2023-05-18T20:12:58.341Z,48.80
2023-05-18T20:15:01.121Z,48.80
2023-05-18T20:17:04.333Z,48.90
2023-05-18T20:19:07.254Z,48.90
2023-05-18T20:21:10.132Z,49.00
2023-05-18T20:23:12.948Z,49.30
2023-05-18T20:25:17.869Z,49.20
2023-05-18T20:27:20.717Z,49.20
2023-05-18T20:29:23.469Z,49.30
2023-05-18T20:31:26.292Z,49.30
2023-05-18T20:33:30.126Z,49.30
2023-05-18T20:35:34.043Z,49.40
2023-05-18T20:37:37.646Z,49.30
2023-05-18T20:39:42.595Z,49.20
2023-05-18T20:41:47.756Z,49.30
2023-05-18T20:43:51.297Z,49.20
2023-05-18T20:45:54.159Z,49.30
2023-05-18T20:47:57.639Z,49.30
2023-05-18T20:50:00.636Z,49.30
2023-05-18T20:52:03.531Z,49.30
2023-05-18T20:54:06.339Z,49.30
2023-05-18T20:56:09.129Z,49.40
2023-05-18T20:58:13.341Z,49.40
2023-05-18T21:00:17.378Z,50.00
2023-05-18T21:02:20.324Z,49.50
2023-05-18T21:04:23.259Z,49.50
2023-05-18T21:06:26.205Z,49.80
2023-05-18T21:08:29.230Z,49.70
2023-05-18T21:10:32.654Z,49.80
2023-05-18T21:12:35.592Z,49.80
2023-05-18T21:14:39.810Z,49.80
2023-05-18T21:16:42.691Z,49.90
2023-05-18T21:18:45.652Z,50.00
2023-05-18T21:20:48.444Z,50.00
2023-05-18T21:22:51.355Z,50.10
2023-05-18T21:24:54.219Z,50.20
2023-05-18T21:26:57.243Z,50.30
2023-05-18T21:29:00.240Z,50.40
2023-05-18T21:31:04.445Z,50.50
2023-05-18T21:33:07.458Z,50.50
2023-05-18T21:35:10.473Z,50.40
2023-05-18T21:37:15.146Z,50.60
2023-05-18T21:39:18.067Z,50.80
2023-05-18T21:41:21.773Z,50.90
2023-05-18T21:43:24.721Z,50.90
2023-05-18T21:45:27.605Z,50.90
2023-05-18T21:47:32.301Z,51.00
2023-05-18T21:49:35.201Z,51.10
2023-05-18T21:51:52.622Z,51.10
2023-05-18T21:53:55.478Z,51.10
2023-05-18T21:55:58.372Z,51.50
2023-05-18T21:58:01.465Z,51.60
2023-05-18T22:00:06.231Z,52.30
2023-05-18T22:02:08.994Z,51.80
2023-05-18T22:04:13.107Z,51.80
2023-05-18T22:06:16.207Z,51.90
2023-05-18T22:08:20.000Z,52.00
2023-05-18T22:10:22.935Z,52.20
2023-05-18T22:12:25.681Z,52.20
2023-05-18T22:14:30.872Z,52.70
2023-05-18T22:16:33.786Z,52.90
2023-05-18T22:18:36.682Z,53.10
2023-05-18T22:20:41.376Z,53.40
2023-05-18T22:22:44.249Z,53.50
2023-05-18T22:24:48.740Z,53.50
2023-05-18T22:26:51.546Z,53.70
2023-05-18T22:28:54.380Z,53.70
2023-05-18T22:30:57.326Z,53.80
2023-05-18T22:33:00.206Z,54.40
2023-05-18T22:35:04.093Z,54.50
2023-05-18T22:37:08.181Z,54.50
2023-05-18T22:39:11.029Z,54.40
2023-05-18T22:41:13.738Z,54.60
2023-05-18T22:43:16.561Z,55.20
2023-05-18T22:45:19.378Z,55.40
2023-05-18T22:47:23.778Z,55.20
2023-05-18T22:49:26.599Z,55.20
2023-05-18T22:51:29.433Z,55.20
2023-05-18T22:53:34.027Z,54.90
2023-05-18T22:55:36.979Z,54.90
2023-05-18T22:57:40.074Z,54.80
2023-05-18T22:59:42.932Z,55.00
2023-05-18T23:01:45.750Z,55.00
2023-05-18T23:03:48.568Z,55.20
2023-05-18T23:05:51.386Z,55.80
2023-05-18T23:07:57.745Z,55.70
2023-05-18T23:10:01.791Z,55.80
2023-05-18T23:12:04.946Z,55.80
2023-05-18T23:14:09.904Z,55.80
2023-05-18T23:16:12.687Z,55.70
2023-05-18T23:18:15.482Z,55.60
2023-05-18T23:20:18.238Z,55.60
2023-05-18T23:22:21.454Z,55.80
2023-05-18T23:24:24.230Z,56.00
2023-05-18T23:26:28.542Z,56.10
2023-05-18T23:28:31.292Z,56.10
2023-05-18T23:30:34.146Z,56.20
2023-05-18T23:32:37.617Z,56.10
2023-05-18T23:34:41.402Z,56.10
2023-05-18T23:36:45.835Z,56.20
2023-05-18T23:38:51.886Z,56.10
2023-05-18T23:40:55.577Z,56.20
2023-05-18T23:43:01.291Z,56.30
2023-05-18T23:45:04.911Z,56.50
2023-05-18T23:47:08.303Z,56.40
2023-05-18T23:49:11.504Z,56.40
2023-05-18T23:51:16.995Z,56.30
2023-05-18T23:53:22.618Z,56.90
2023-05-18T23:55:27.712Z,56.60
2023-05-18T23:57:31.474Z,56.50
2023-05-18T23:59:36.932Z,56.40
